createdAt,value
2016-09-24T00:00:15.782Z,0
2016-09-24T00:01:15.929Z,0
2016-09-24T00:02:14.997Z,0
2016-09-24T00:03:14.975Z,0
2016-09-24T00:04:15.309Z,0
2016-09-24T00:05:14.273Z,0
2016-09-24T00:06:15.053Z,0
2016-09-24T00:07:15.378Z,0
2016-09-24T00:08:14.372Z,0
2016-09-24T00:09:14.351Z,0
2016-09-24T00:10:14.979Z,0
2016-09-24T00:11:15.290Z,0
2016-09-24T00:12:15.522Z,0
2016-09-24T00:13:14.643Z,0
2016-09-24T00:14:14.373Z,0
2016-09-24T00:15:14.395Z,0
2016-09-24T00:16:16.180Z,0
2016-09-24T00:17:15.778Z,0
2016-09-24T00:18:15.813Z,0
2016-09-24T00:19:14.566Z,0
2016-09-24T00:20:14.326Z,0
2016-09-24T00:21:14.991Z,0
2016-09-24T00:22:14.734Z,0
2016-09-24T00:23:14.349Z,0
2016-09-24T00:24:16.079Z,0
2016-09-24T00:25:15.613Z,0
2016-09-24T00:26:15.507Z,0
2016-09-24T00:27:14.504Z,0
2016-09-24T00:28:14.111Z,0
2016-09-24T00:29:15.229Z,0
2016-09-24T00:30:14.005Z,0
2016-09-24T00:31:14.568Z,0
2016-09-24T00:32:14.782Z,0
2016-09-24T00:33:17.031Z,0
2016-09-24T00:34:14.846Z,0
2016-09-24T00:35:14.775Z,0
2016-09-24T00:36:14.805Z,0
2016-09-24T00:37:14.654Z,0
2016-09-24T00:38:15.075Z,0
2016-09-24T00:39:15.223Z,0
2016-09-24T00:40:15.129Z,0
2016-09-24T00:41:15.374Z,0
2016-09-24T00:42:17.161Z,0
2016-09-24T00:43:14.383Z,0
2016-09-24T00:44:14.480Z,0
2016-09-24T00:45:16.962Z,0
2016-09-24T00:46:14.284Z,0
2016-09-24T00:47:15.095Z,0
2016-09-24T00:48:16.229Z,0
2016-09-24T00:49:15.412Z,0
2016-09-24T00:50:15.371Z,0
2016-09-24T00:51:15.232Z,0
2016-09-24T00:52:15.902Z,0
2016-09-24T00:53:15.259Z,0
2016-09-24T00:54:15.096Z,0
2016-09-24T00:55:14.342Z,0
2016-09-24T00:56:16.291Z,0
2016-09-24T00:57:14.796Z,0
2016-09-24T00:58:15.552Z,0
2016-09-24T00:59:15.349Z,0
2016-09-24T01:00:15.019Z,0
2016-09-24T01:01:15.891Z,0
2016-09-24T01:02:15.090Z,0
2016-09-24T01:03:15.283Z,0
2016-09-24T01:04:15.897Z,0
2016-09-24T01:05:15.344Z,0
2016-09-24T01:06:15.698Z,0
2016-09-24T01:07:14.835Z,0
2016-09-24T01:08:15.525Z,0
2016-09-24T01:09:15.318Z,0
2016-09-24T01:10:15.811Z,0
2016-09-24T01:11:15.295Z,0
2016-09-24T01:12:15.786Z,0
2016-09-24T01:13:16.281Z,0
2016-09-24T01:14:15.761Z,0
2016-09-24T01:15:14.803Z,0
2016-09-24T01:16:15.595Z,0
2016-09-24T01:17:15.282Z,0
2016-09-24T01:18:15.968Z,0
2016-09-24T01:19:17.499Z,0
2016-09-24T01:20:15.733Z,0
2016-09-24T01:21:16.785Z,0
2016-09-24T01:22:15.544Z,0
2016-09-24T01:23:16.179Z,0
2016-09-24T01:24:16.197Z,0
2016-09-24T01:25:16.753Z,0
2016-09-24T01:26:16.614Z,0
2016-09-24T01:27:15.297Z,0
2016-09-24T01:28:16.028Z,0
2016-09-24T01:29:15.988Z,0
2016-09-24T01:30:16.592Z,0
2016-09-24T01:31:16.598Z,0
2016-09-24T01:32:16.385Z,0
2016-09-24T01:33:16.153Z,0
2016-09-24T01:34:15.380Z,0
2016-09-24T01:35:17.215Z,0
2016-09-24T01:36:16.801Z,0
2016-09-24T01:37:17.067Z,0
2016-09-24T01:38:17.468Z,0
2016-09-24T01:39:17.355Z,0
2016-09-24T01:40:15.931Z,0
2016-09-24T01:41:15.521Z,0
2016-09-24T01:42:15.660Z,0
2016-09-24T01:43:18.207Z,0
2016-09-24T01:44:17.037Z,0
2016-09-24T01:45:16.542Z,0
2016-09-24T01:46:17.856Z,0
2016-09-24T01:47:16.126Z,0
2016-09-24T01:48:16.408Z,0
2016-09-24T01:49:16.845Z,0
2016-09-24T01:50:16.040Z,0
2016-09-24T01:51:16.164Z,0
2016-09-24T01:52:16.610Z,0
2016-09-24T01:53:15.399Z,0
2016-09-24T01:54:15.445Z,0
2016-09-24T01:55:16.764Z,0
2016-09-24T01:56:16.328Z,0
2016-09-24T01:57:16.868Z,0
2016-09-24T01:58:16.399Z,0
2016-09-24T01:59:17.071Z,0
2016-09-24T02:00:17.056Z,0
2016-09-24T02:01:17.605Z,0
2016-09-24T02:02:16.143Z,0
2016-09-24T02:03:17.649Z,0
2016-09-24T02:04:16.501Z,0
2016-09-24T02:05:17.004Z,0
2016-09-24T02:06:17.697Z,0
2016-09-24T02:07:17.398Z,0
2016-09-24T02:08:17.261Z,0
2016-09-24T02:09:17.829Z,0
2016-09-24T02:10:16.966Z,0
2016-09-24T02:11:16.078Z,0
2016-09-24T02:12:17.397Z,0
2016-09-24T02:13:16.377Z,0
2016-09-24T02:14:16.781Z,0
2016-09-24T02:15:17.296Z,0
2016-09-24T02:16:17.046Z,0
2016-09-24T02:17:17.948Z,0
2016-09-24T02:18:16.635Z,0
2016-09-24T02:19:17.420Z,0
2016-09-24T02:20:17.015Z,0
2016-09-24T02:21:17.062Z,0
2016-09-24T02:22:16.844Z,0
2016-09-24T02:23:17.628Z,0
2016-09-24T02:24:16.836Z,0
2016-09-24T02:25:18.363Z,0
2016-09-24T02:26:19.472Z,0
2016-09-24T02:27:16.806Z,0
2016-09-24T02:28:17.564Z,0
2016-09-24T02:29:18.346Z,0
2016-09-24T02:30:17.432Z,0
2016-09-24T02:31:19.144Z,0
2016-09-24T02:32:17.160Z,0
2016-09-24T02:33:17.024Z,0
2016-09-24T02:34:19.542Z,0
2016-09-24T02:35:18.525Z,0
2016-09-24T02:36:17.073Z,0
2016-09-24T02:37:18.492Z,0
2016-09-24T02:38:17.524Z,0
2016-09-24T02:39:18.415Z,0
2016-09-24T02:40:17.493Z,0
2016-09-24T02:41:17.623Z,0
2016-09-24T02:42:17.020Z,0
2016-09-24T02:43:17.559Z,0
2016-09-24T02:44:17.307Z,0
2016-09-24T02:45:17.442Z,0
2016-09-24T02:46:17.530Z,0
2016-09-24T02:47:16.986Z,0
2016-09-24T02:48:16.931Z,0
2016-09-24T02:49:19.620Z,0
2016-09-24T02:50:17.920Z,0
2016-09-24T02:51:17.203Z,0
2016-09-24T02:52:18.307Z,0
2016-09-24T02:53:19.750Z,0
2016-09-24T02:54:17.293Z,0
2016-09-24T02:55:18.450Z,0
2016-09-24T02:56:18.479Z,0
2016-09-24T02:57:18.441Z,0
2016-09-24T02:58:17.457Z,0
2016-09-24T02:59:17.480Z,0
2016-09-24T03:00:19.538Z,0
2016-09-24T03:01:18.702Z,0
2016-09-24T03:02:18.565Z,0
2016-09-24T03:03:17.823Z,0
2016-09-24T03:04:20.148Z,0
2016-09-24T03:05:19.255Z,0
2016-09-24T03:06:18.107Z,0
2016-09-24T03:07:19.218Z,0
2016-09-24T03:08:18.205Z,0
2016-09-24T03:09:17.354Z,0
2016-09-24T03:10:17.039Z,0
2016-09-24T03:11:17.284Z,0
2016-09-24T03:12:18.691Z,0
2016-09-24T03:13:18.962Z,0
2016-09-24T03:14:17.496Z,0
2016-09-24T03:15:19.308Z,0
2016-09-24T03:16:19.380Z,0
2016-09-24T03:17:17.930Z,0
2016-09-24T03:18:18.481Z,0
2016-09-24T03:19:17.196Z,0
2016-09-24T03:20:18.124Z,0
2016-09-24T03:21:17.805Z,0
2016-09-24T03:22:18.639Z,0
2016-09-24T03:23:19.176Z,0
2016-09-24T03:24:18.566Z,0
2016-09-24T03:25:18.095Z,0
2016-09-24T03:26:19.193Z,0
2016-09-24T03:27:18.284Z,0
2016-09-24T03:28:19.407Z,0
2016-09-24T03:29:19.446Z,0
2016-09-24T03:30:20.601Z,0
2016-09-24T03:31:18.399Z,0
2016-09-24T03:32:18.351Z,0
2016-09-24T03:33:18.715Z,0
2016-09-24T03:34:18.673Z,0
2016-09-24T03:35:18.107Z,0
2016-09-24T03:36:18.400Z,0
2016-09-24T03:37:19.693Z,0
2016-09-24T03:38:18.103Z,0
2016-09-24T03:39:18.602Z,0
2016-09-24T03:40:18.434Z,0
2016-09-24T03:41:17.810Z,0
2016-09-24T03:42:19.566Z,0
2016-09-24T03:43:18.051Z,0
2016-09-24T03:44:18.146Z,0
2016-09-24T03:45:18.539Z,0
2016-09-24T03:46:19.776Z,0
2016-09-24T03:47:18.328Z,0
2016-09-24T03:48:19.642Z,0
2016-09-24T03:49:19.176Z,0
2016-09-24T03:50:19.858Z,0
2016-09-24T03:51:19.924Z,0
2016-09-24T03:52:18.317Z,0
2016-09-24T03:53:19.307Z,0
2016-09-24T03:54:19.471Z,0
2016-09-24T03:55:18.825Z,0
2016-09-24T03:56:18.706Z,0
2016-09-24T03:57:19.810Z,0
2016-09-24T03:58:19.805Z,0
2016-09-24T03:59:19.291Z,0
2016-09-24T04:00:19.766Z,0
2016-09-24T04:01:20.050Z,0
2016-09-24T04:02:19.931Z,0
2016-09-24T04:03:19.384Z,0
2016-09-24T04:04:19.206Z,0
2016-09-24T04:05:19.720Z,0
2016-09-24T04:06:19.791Z,0
2016-09-24T04:07:18.893Z,0
2016-09-24T04:08:19.276Z,0
2016-09-24T04:09:20.783Z,0
2016-09-24T04:10:20.363Z,0
2016-09-24T04:11:19.531Z,0
2016-09-24T04:12:19.915Z,0
2016-09-24T04:13:20.789Z,0
2016-09-24T04:14:19.305Z,0
2016-09-24T04:15:18.693Z,0
2016-09-24T04:16:19.591Z,0
2016-09-24T04:17:20.028Z,0
2016-09-24T04:18:20.464Z,0
2016-09-24T04:19:19.551Z,0
2016-09-24T04:20:18.569Z,0
2016-09-24T04:21:18.396Z,0
2016-09-24T04:22:20.732Z,0
2016-09-24T04:23:20.182Z,0
2016-09-24T04:24:19.690Z,0
2016-09-24T04:25:18.312Z,0
2016-09-24T04:26:19.184Z,0
2016-09-24T04:27:20.038Z,0
2016-09-24T04:28:20.156Z,0
2016-09-24T04:29:20.162Z,0
2016-09-24T04:30:19.531Z,0
2016-09-24T04:31:19.480Z,0
2016-09-24T04:32:19.216Z,0
2016-09-24T04:33:19.992Z,0
2016-09-24T04:34:19.907Z,0
2016-09-24T04:35:19.747Z,0
2016-09-24T04:36:19.245Z,0
2016-09-24T04:37:20.174Z,0
2016-09-24T04:38:19.846Z,0
2016-09-24T04:39:19.615Z,0
2016-09-24T04:40:19.831Z,0
2016-09-24T04:41:18.298Z,0
2016-09-24T04:42:17.694Z,0
2016-09-24T04:43:20.729Z,0
2016-09-24T04:44:20.583Z,0
2016-09-24T04:45:20.348Z,0
2016-09-24T04:46:21.692Z,0
2016-09-24T04:47:20.822Z,0
2016-09-24T04:48:19.084Z,0
2016-09-24T04:49:20.785Z,0
2016-09-24T04:50:19.306Z,0
2016-09-24T04:51:19.316Z,0
2016-09-24T04:52:21.887Z,0
2016-09-24T04:53:20.097Z,0
2016-09-24T04:54:19.399Z,0
2016-09-24T04:55:19.612Z,0
2016-09-24T04:56:20.723Z,0
2016-09-24T04:57:20.622Z,0
2016-09-24T04:58:19.811Z,0
2016-09-24T04:59:19.903Z,0
2016-09-24T05:00:20.425Z,0
2016-09-24T05:01:20.706Z,0
2016-09-24T05:02:19.948Z,0
2016-09-24T05:03:20.040Z,0
2016-09-24T05:04:19.771Z,5
2016-09-24T05:05:20.542Z,5
2016-09-24T05:06:20.503Z,5
2016-09-24T05:07:20.320Z,5
2016-09-24T05:08:20.866Z,5
2016-09-24T05:09:19.640Z,5
2016-09-24T05:10:20.614Z,10
2016-09-24T05:11:20.146Z,10
2016-09-24T05:12:20.161Z,10
2016-09-24T05:13:19.986Z,10
2016-09-24T05:14:20.186Z,10
2016-09-24T05:15:21.231Z,15
2016-09-24T05:16:20.998Z,15
2016-09-24T05:17:20.139Z,15
2016-09-24T05:18:20.612Z,15
2016-09-24T05:19:20.555Z,20
2016-09-24T05:20:20.521Z,20
2016-09-24T05:21:21.284Z,25
2016-09-24T05:22:20.390Z,25
2016-09-24T05:23:20.713Z,25
2016-09-24T05:24:22.383Z,25
2016-09-24T05:25:19.779Z,30
2016-09-24T05:26:21.426Z,35
2016-09-24T05:27:22.079Z,35
2016-09-24T05:28:19.960Z,35
2016-09-24T05:29:20.265Z,40
2016-09-24T05:30:19.832Z,40
2016-09-24T05:31:20.368Z,45
2016-09-24T05:32:21.756Z,45
2016-09-24T05:33:21.372Z,50
2016-09-24T05:34:20.827Z,55
2016-09-24T05:35:20.816Z,60
2016-09-24T05:36:20.488Z,65
2016-09-24T05:37:20.791Z,65
2016-09-24T05:38:20.523Z,70
2016-09-24T05:39:20.806Z,70
2016-09-24T05:40:20.992Z,75
2016-09-24T05:41:19.801Z,75
2016-09-24T05:42:23.276Z,75
2016-09-24T05:43:20.878Z,80
2016-09-24T05:44:22.063Z,85
2016-09-24T05:45:22.453Z,90
2016-09-24T05:46:20.277Z,90
2016-09-24T05:47:20.022Z,95
2016-09-24T05:48:21.384Z,95
2016-09-24T05:49:20.235Z,100
2016-09-24T05:50:22.080Z,105
2016-09-24T05:51:20.991Z,105
2016-09-24T05:52:21.118Z,105
2016-09-24T05:53:21.407Z,110
2016-09-24T05:54:21.426Z,110
2016-09-24T05:55:21.284Z,115
2016-09-24T05:56:20.329Z,125
2016-09-24T05:57:21.741Z,130
2016-09-24T05:58:21.583Z,130
2016-09-24T05:59:23.317Z,130
2016-09-24T06:00:20.575Z,125
2016-09-24T06:01:21.355Z,135
2016-09-24T06:02:20.411Z,140
2016-09-24T06:03:20.365Z,145
2016-09-24T06:04:21.077Z,145
2016-09-24T06:05:23.832Z,150
2016-09-24T06:06:21.108Z,155
2016-09-24T06:07:21.568Z,160
2016-09-24T06:08:20.794Z,155
2016-09-24T06:09:21.212Z,155
2016-09-24T06:11:20.665Z,160
2016-09-24T06:12:21.862Z,160
2016-09-24T06:13:22.005Z,170
2016-09-24T06:14:21.193Z,175
2016-09-24T06:15:22.363Z,185
2016-09-24T06:16:21.907Z,195
2016-09-24T06:17:21.588Z,200
2016-09-24T06:18:21.553Z,215
2016-09-24T06:19:21.910Z,220
2016-09-24T06:20:20.657Z,220
2016-09-24T06:21:22.712Z,235
2016-09-24T06:22:22.498Z,225
2016-09-24T06:23:22.344Z,220
2016-09-24T06:24:21.627Z,220
2016-09-24T06:25:21.668Z,230
2016-09-24T06:26:22.876Z,230
2016-09-24T06:27:21.343Z,230
2016-09-24T06:28:20.748Z,225
2016-09-24T06:29:23.242Z,225
2016-09-24T06:30:22.472Z,240
2016-09-24T06:31:22.377Z,250
2016-09-24T06:32:22.835Z,270
2016-09-24T06:33:22.075Z,275
2016-09-24T06:34:21.986Z,280
2016-09-24T06:35:22.344Z,290
2016-09-24T06:36:21.160Z,285
2016-09-24T06:37:22.938Z,275
2016-09-24T06:38:21.551Z,295
2016-09-24T06:39:22.522Z,315
2016-09-24T06:40:22.803Z,335
2016-09-24T06:41:21.927Z,320
2016-09-24T06:42:22.241Z,340
2016-09-24T06:43:22.005Z,355
2016-09-24T06:44:24.435Z,350
2016-09-24T06:45:22.356Z,330
2016-09-24T06:46:22.349Z,335
2016-09-24T06:47:23.185Z,335
2016-09-24T06:48:22.021Z,345
2016-09-24T06:49:22.419Z,375
2016-09-24T06:50:22.227Z,345
2016-09-24T06:51:22.955Z,335
2016-09-24T06:52:24.717Z,350
2016-09-24T06:53:21.836Z,360
2016-09-24T06:54:22.675Z,375
2016-09-24T06:55:23.280Z,395
2016-09-24T06:56:23.282Z,385
2016-09-24T06:57:22.108Z,405
2016-09-24T06:58:23.545Z,405
2016-09-24T06:59:22.045Z,455
2016-09-24T07:00:22.429Z,430
2016-09-24T07:01:22.189Z,425
2016-09-24T07:02:22.122Z,410
2016-09-24T07:03:22.047Z,440
2016-09-24T07:04:22.843Z,460
2016-09-24T07:05:22.755Z,460
2016-09-24T07:06:23.039Z,435
2016-09-24T07:07:23.251Z,470
2016-09-24T07:08:22.578Z,470
2016-09-24T07:09:23.725Z,450
2016-09-24T07:10:24.473Z,500
2016-09-24T07:11:23.237Z,475
2016-09-24T07:12:23.761Z,460
2016-09-24T07:13:22.007Z,445
2016-09-24T07:14:23.189Z,420
2016-09-24T07:15:23.899Z,415
2016-09-24T07:16:24.402Z,405
2016-09-24T07:17:25.270Z,415
2016-09-24T07:18:24.806Z,450
2016-09-24T07:19:23.242Z,430
2016-09-24T07:20:24.603Z,460
2016-09-24T07:21:24.151Z,455
2016-09-24T07:22:24.067Z,465
2016-09-24T07:23:24.381Z,470
2016-09-24T07:24:22.904Z,490
2016-09-24T07:25:24.039Z,485
2016-09-24T07:26:23.192Z,470
2016-09-24T07:27:23.151Z,545
2016-09-24T07:28:23.773Z,545
2016-09-24T07:29:23.302Z,570
2016-09-24T07:30:22.969Z,545
2016-09-24T07:31:22.668Z,530
2016-09-24T07:32:23.791Z,595
2016-09-24T07:33:22.528Z,570
2016-09-24T07:34:25.004Z,570
2016-09-24T07:35:23.245Z,560
2016-09-24T07:36:22.965Z,565
2016-09-24T07:37:22.487Z,550
2016-09-24T07:38:22.844Z,545
2016-09-24T07:39:25.579Z,555
2016-09-24T07:40:23.303Z,560
2016-09-24T07:42:23.346Z,605
2016-09-24T07:43:22.485Z,600
2016-09-24T07:44:24.640Z,580
2016-09-24T07:45:22.781Z,610
2016-09-24T07:46:23.387Z,610
2016-09-24T07:47:23.434Z,610
2016-09-24T07:48:24.064Z,600
2016-09-24T07:49:23.378Z,605
2016-09-24T07:50:22.574Z,600
2016-09-24T07:51:24.091Z,620
2016-09-24T07:52:24.884Z,615
2016-09-24T07:53:25.160Z,620
2016-09-24T07:54:24.740Z,620
2016-09-24T07:55:23.779Z,645
2016-09-24T07:56:25.343Z,635
2016-09-24T07:57:24.448Z,650
2016-09-24T07:58:22.588Z,645
2016-09-24T07:59:24.496Z,660
2016-09-24T08:00:24.324Z,655
2016-09-24T08:01:24.241Z,640
2016-09-24T08:02:22.986Z,660
2016-09-24T08:03:23.455Z,685
2016-09-24T08:04:24.997Z,675
2016-09-24T08:05:24.870Z,650
2016-09-24T08:06:24.011Z,635
2016-09-24T08:07:24.978Z,680
2016-09-24T08:08:24.175Z,720
2016-09-24T08:09:23.537Z,720
2016-09-24T08:10:25.245Z,675
2016-09-24T08:11:24.169Z,650
2016-09-24T08:12:22.976Z,645
2016-09-24T08:13:24.042Z,640
2016-09-24T08:14:24.852Z,635
2016-09-24T08:15:24.752Z,645
2016-09-24T08:16:24.687Z,650
2016-09-24T08:17:23.448Z,650
2016-09-24T08:18:23.378Z,655
2016-09-24T08:19:23.497Z,660
2016-09-24T08:20:24.958Z,665
2016-09-24T08:21:23.115Z,670
2016-09-24T08:22:25.103Z,680
2016-09-24T08:23:25.045Z,680
2016-09-24T08:24:23.900Z,685
2016-09-24T08:25:24.992Z,695
2016-09-24T08:26:25.272Z,695
2016-09-24T08:27:24.226Z,695
2016-09-24T08:28:23.789Z,695
2016-09-24T08:29:24.706Z,700
2016-09-24T08:30:24.753Z,700
2016-09-24T08:31:24.954Z,700
2016-09-24T08:32:24.153Z,695
2016-09-24T08:33:24.604Z,690
2016-09-24T08:34:25.644Z,690
2016-09-24T08:35:24.940Z,705
2016-09-24T08:36:24.425Z,710
2016-09-24T08:37:24.112Z,715
2016-09-24T08:38:24.784Z,720
2016-09-24T08:39:25.682Z,730
2016-09-24T08:40:26.183Z,730
2016-09-24T08:41:23.922Z,730
2016-09-24T08:42:24.687Z,735
2016-09-24T08:43:24.817Z,730
2016-09-24T08:44:25.636Z,725
2016-09-24T08:45:25.752Z,720
2016-09-24T08:46:24.822Z,710
2016-09-24T08:47:24.650Z,695
2016-09-24T08:48:25.009Z,715
2016-09-24T08:49:25.253Z,735
2016-09-24T08:50:25.309Z,735
2016-09-24T08:51:25.122Z,735
2016-09-24T08:52:25.536Z,740
2016-09-24T08:53:24.311Z,735
2016-09-24T08:54:24.855Z,730
2016-09-24T08:55:25.873Z,730
2016-09-24T08:56:27.124Z,740
2016-09-24T08:57:25.402Z,730
2016-09-24T08:58:26.666Z,735
2016-09-24T08:59:25.634Z,750
2016-09-24T09:00:24.223Z,750
2016-09-24T09:01:25.574Z,750
2016-09-24T09:02:25.691Z,745
2016-09-24T09:03:25.015Z,740
2016-09-24T09:04:24.355Z,735
2016-09-24T09:05:24.933Z,730
2016-09-24T09:06:24.377Z,740
2016-09-24T09:07:24.550Z,740
2016-09-24T09:08:24.591Z,745
2016-09-24T09:09:25.509Z,750
2016-09-24T09:10:25.090Z,750
2016-09-24T09:11:24.518Z,750
2016-09-24T09:12:26.155Z,755
2016-09-24T09:13:26.065Z,750
2016-09-24T09:14:24.852Z,750
2016-09-24T09:15:25.840Z,755
2016-09-24T09:16:25.246Z,750
2016-09-24T09:17:26.384Z,755
2016-09-24T09:18:25.077Z,755
2016-09-24T09:19:25.732Z,765
2016-09-24T09:20:26.435Z,765
2016-09-24T09:21:25.466Z,765
2016-09-24T09:22:24.442Z,760
2016-09-24T09:23:26.720Z,745
2016-09-24T09:24:25.166Z,760
2016-09-24T09:25:26.589Z,780
2016-09-24T09:26:25.128Z,785
2016-09-24T09:27:24.927Z,780
2016-09-24T09:28:26.579Z,775
2016-09-24T09:29:25.493Z,770
2016-09-24T09:30:25.913Z,770
2016-09-24T09:31:25.624Z,775
2016-09-24T09:32:26.645Z,775
2016-09-24T09:33:25.810Z,775
2016-09-24T09:34:25.660Z,780
2016-09-24T09:35:26.842Z,775
2016-09-24T09:36:25.194Z,785
2016-09-24T09:37:25.807Z,790
2016-09-24T09:38:25.835Z,795
2016-09-24T09:39:25.143Z,795
2016-09-24T09:40:25.691Z,790
2016-09-24T09:41:25.816Z,790
2016-09-24T09:42:26.292Z,795
2016-09-24T09:43:26.496Z,790
2016-09-24T09:44:24.872Z,785
2016-09-24T09:45:26.678Z,780
2016-09-24T09:46:28.546Z,780
2016-09-24T09:47:25.631Z,775
2016-09-24T09:48:25.683Z,780
2016-09-24T09:49:26.487Z,775
2016-09-24T09:50:26.686Z,785
2016-09-24T09:51:26.498Z,775
2016-09-24T09:52:25.307Z,775
2016-09-24T09:53:25.632Z,775
2016-09-24T09:54:27.925Z,780
2016-09-24T09:55:26.475Z,775
2016-09-24T09:56:25.485Z,775
2016-09-24T09:57:26.199Z,775
2016-09-24T09:58:26.168Z,785
2016-09-24T09:59:26.356Z,775
2016-09-24T10:00:26.393Z,775
2016-09-24T10:01:26.709Z,780
2016-09-24T10:02:26.011Z,775
2016-09-24T10:03:25.964Z,770
2016-09-24T10:04:26.374Z,770
2016-09-24T10:05:27.164Z,770
2016-09-24T10:06:28.184Z,770
2016-09-24T10:07:26.452Z,770
2016-09-24T10:08:26.549Z,765
2016-09-24T10:09:25.524Z,770
2016-09-24T10:10:27.166Z,770
2016-09-24T10:11:25.325Z,765
2016-09-24T10:12:26.536Z,765
2016-09-24T10:13:28.586Z,765
2016-09-24T10:14:27.279Z,760
2016-09-24T10:15:27.465Z,755
2016-09-24T10:16:26.861Z,730
2016-09-24T10:17:26.921Z,705
2016-09-24T10:18:27.456Z,760
2016-09-24T10:19:26.197Z,760
2016-09-24T10:20:26.846Z,755
2016-09-24T10:21:27.349Z,755
2016-09-24T10:22:26.945Z,750
2016-09-24T10:23:28.171Z,745
2016-09-24T10:24:27.927Z,745
2016-09-24T10:25:27.162Z,745
2016-09-24T10:26:27.637Z,740
2016-09-24T10:27:27.279Z,740
2016-09-24T10:28:27.686Z,740
2016-09-24T10:29:27.506Z,740
2016-09-24T10:30:26.726Z,735
2016-09-24T10:31:27.095Z,700
2016-09-24T10:32:26.820Z,690
2016-09-24T10:33:26.553Z,680
2016-09-24T10:34:27.687Z,690
2016-09-24T10:35:27.494Z,725
2016-09-24T10:36:27.468Z,740
2016-09-24T10:37:27.741Z,755
2016-09-24T10:38:26.577Z,755
2016-09-24T10:39:26.724Z,745
2016-09-24T10:40:26.967Z,750
2016-09-24T10:41:28.088Z,750
2016-09-24T10:42:28.236Z,745
2016-09-24T10:43:26.959Z,745
2016-09-24T10:44:28.250Z,750
2016-09-24T10:45:27.107Z,755
2016-09-24T10:46:29.477Z,745
2016-09-24T10:47:27.584Z,740
2016-09-24T10:48:27.609Z,745
2016-09-24T10:49:28.267Z,755
2016-09-24T10:50:27.106Z,750
2016-09-24T10:51:27.608Z,750
2016-09-24T10:52:27.316Z,735
2016-09-24T10:53:28.481Z,740
2016-09-24T10:54:27.819Z,745
2016-09-24T10:55:28.006Z,700
2016-09-24T10:56:27.573Z,735
2016-09-24T10:57:28.634Z,745
2016-09-24T10:58:27.483Z,750
2016-09-24T10:59:28.165Z,760
2016-09-24T11:00:29.185Z,765
2016-09-24T11:01:27.313Z,760
2016-09-24T11:02:27.578Z,765
2016-09-24T11:03:27.656Z,755
2016-09-24T11:04:27.768Z,770
2016-09-24T11:05:28.553Z,760
2016-09-24T11:06:28.395Z,775
2016-09-24T11:07:28.196Z,785
2016-09-24T11:08:27.891Z,780
2016-09-24T11:09:28.235Z,765
2016-09-24T11:10:28.209Z,785
2016-09-24T11:11:27.896Z,785
2016-09-24T11:12:29.391Z,790
2016-09-24T11:13:27.425Z,785
2016-09-24T11:14:28.623Z,770
2016-09-24T11:15:28.345Z,775
2016-09-24T11:16:28.254Z,785
2016-09-24T11:17:27.844Z,790
2016-09-24T11:18:27.499Z,780
2016-09-24T11:19:28.680Z,770
2016-09-24T11:20:29.134Z,775
2016-09-24T11:21:28.175Z,770
2016-09-24T11:22:28.318Z,795
2016-09-24T11:23:29.473Z,800
2016-09-24T11:24:27.461Z,795
2016-09-24T11:25:29.445Z,815
2016-09-24T11:26:29.291Z,825
2016-09-24T11:27:29.107Z,820
2016-09-24T11:28:29.898Z,800
2016-09-24T11:29:29.489Z,795
2016-09-24T11:30:28.211Z,755
2016-09-24T11:31:29.988Z,545
2016-09-24T11:32:29.964Z,640
2016-09-24T11:33:29.103Z,560
2016-09-24T11:34:29.768Z,635
2016-09-24T11:35:29.453Z,800
2016-09-24T11:36:30.780Z,825
2016-09-24T11:37:29.419Z,695
2016-09-24T11:38:29.671Z,655
2016-09-24T11:39:29.818Z,640
2016-09-24T11:40:29.513Z,650
2016-09-24T11:41:30.501Z,800
2016-09-24T11:42:29.740Z,795
2016-09-24T11:43:29.554Z,850
2016-09-24T11:44:29.530Z,745
2016-09-24T11:45:29.629Z,755
2016-09-24T11:46:30.155Z,775
2016-09-24T11:47:30.430Z,810
2016-09-24T11:48:28.848Z,950
2016-09-24T11:49:29.723Z,850
2016-09-24T11:50:28.595Z,855
2016-09-24T11:51:30.119Z,995
2016-09-24T11:52:29.729Z,1070
2016-09-24T11:53:29.430Z,1095
2016-09-24T11:54:29.687Z,1005
2016-09-24T11:55:29.082Z,1020
2016-09-24T11:56:28.866Z,1060
2016-09-24T11:57:29.404Z,1170
2016-09-24T11:58:31.078Z,1180
2016-09-24T11:59:29.032Z,1155
2016-09-24T12:00:28.380Z,1100
2016-09-24T12:01:29.956Z,965
2016-09-24T12:02:30.853Z,910
2016-09-24T12:03:29.708Z,890
2016-09-24T12:04:29.080Z,965
2016-09-24T12:05:29.995Z,1010
2016-09-24T12:06:31.339Z,995
2016-09-24T12:07:30.202Z,870
2016-09-24T12:08:29.858Z,865
2016-09-24T12:09:30.876Z,960
2016-09-24T12:10:30.412Z,815
2016-09-24T12:11:31.311Z,785
2016-09-24T12:12:30.528Z,825
2016-09-24T12:13:31.132Z,855
2016-09-24T12:14:30.878Z,850
2016-09-24T12:15:30.438Z,835
2016-09-24T12:16:30.775Z,810
2016-09-24T12:17:31.138Z,790
2016-09-24T12:18:30.486Z,785
2016-09-24T12:19:29.858Z,805
2016-09-24T12:20:30.604Z,845
2016-09-24T12:21:31.948Z,840
2016-09-24T12:22:30.367Z,715
2016-09-24T12:23:31.271Z,700
2016-09-24T12:24:30.200Z,710
2016-09-24T12:25:29.882Z,855
2016-09-24T12:26:30.823Z,845
2016-09-24T12:27:30.630Z,965
2016-09-24T12:28:30.011Z,945
2016-09-24T12:29:31.293Z,970
2016-09-24T12:30:30.885Z,955
2016-09-24T12:31:30.807Z,940
2016-09-24T12:32:31.111Z,930
2016-09-24T12:33:31.916Z,810
2016-09-24T12:34:31.728Z,855
2016-09-24T12:35:31.101Z,820
2016-09-24T12:36:31.288Z,825
2016-09-24T12:37:29.951Z,890
2016-09-24T12:38:30.547Z,895
2016-09-24T12:39:31.033Z,865
2016-09-24T12:40:31.243Z,840
2016-09-24T12:41:30.488Z,805
2016-09-24T12:42:31.222Z,805
2016-09-24T12:43:31.535Z,785
2016-09-24T12:44:30.578Z,810
2016-09-24T12:45:31.425Z,870
2016-09-24T12:46:31.379Z,910
2016-09-24T12:47:31.594Z,925
2016-09-24T12:48:32.005Z,925
2016-09-24T12:49:32.144Z,930
2016-09-24T12:50:32.237Z,855
2016-09-24T12:51:33.199Z,840
2016-09-24T12:52:30.514Z,915
2016-09-24T12:53:32.384Z,805
2016-09-24T12:54:31.775Z,890
2016-09-24T12:55:32.289Z,880
2016-09-24T12:56:32.020Z,810
2016-09-24T12:57:31.529Z,865
2016-09-24T12:58:31.529Z,790
2016-09-24T12:59:31.288Z,795
2016-09-24T13:00:31.060Z,760
2016-09-24T13:01:32.074Z,745
2016-09-24T13:02:31.894Z,715
2016-09-24T13:03:31.852Z,720
2016-09-24T13:04:32.227Z,710
2016-09-24T13:05:32.140Z,710
2016-09-24T13:06:33.237Z,715
2016-09-24T13:07:33.028Z,715
2016-09-24T13:08:31.889Z,720
2016-09-24T13:09:31.677Z,725
2016-09-24T13:10:32.777Z,720
2016-09-24T13:11:32.272Z,740
2016-09-24T13:12:32.389Z,735
2016-09-24T13:13:31.039Z,730
2016-09-24T13:14:32.937Z,735
2016-09-24T13:15:32.217Z,740
2016-09-24T13:16:32.120Z,735
2016-09-24T13:17:33.520Z,690
2016-09-24T13:18:32.510Z,750
2016-09-24T13:19:32.559Z,750
2016-09-24T13:20:32.214Z,750
2016-09-24T13:21:32.091Z,760
2016-09-24T13:22:31.878Z,775
2016-09-24T13:23:32.928Z,660
2016-09-24T13:24:33.214Z,670
2016-09-24T13:25:31.820Z,675
2016-09-24T13:26:32.477Z,755
2016-09-24T13:27:32.155Z,765
2016-09-24T13:28:33.117Z,805
2016-09-24T13:29:33.134Z,805
2016-09-24T13:30:33.461Z,775
2016-09-24T13:31:33.722Z,685
2016-09-24T13:32:32.574Z,695
2016-09-24T13:33:32.831Z,680
2016-09-24T13:34:32.929Z,670
2016-09-24T13:35:32.725Z,690
2016-09-24T13:36:32.229Z,695
2016-09-24T13:37:34.175Z,645
2016-09-24T13:38:32.823Z,625
2016-09-24T13:39:33.649Z,645
2016-09-24T13:40:32.736Z,640
2016-09-24T13:41:32.420Z,645
2016-09-24T13:42:32.429Z,650
2016-09-24T13:43:33.712Z,645
2016-09-24T13:44:33.823Z,670
2016-09-24T13:45:33.012Z,685
2016-09-24T13:46:32.660Z,705
2016-09-24T13:47:33.962Z,715
2016-09-24T13:48:33.543Z,715
2016-09-24T13:49:33.656Z,690
2016-09-24T13:50:33.184Z,660
2016-09-24T13:51:33.124Z,625
2016-09-24T13:52:32.130Z,605
2016-09-24T13:53:33.782Z,595
2016-09-24T13:54:32.946Z,585
2016-09-24T13:55:34.062Z,600
2016-09-24T13:56:33.546Z,615
2016-09-24T13:57:32.656Z,640
2016-09-24T13:58:35.065Z,650
2016-09-24T13:59:32.617Z,655
2016-09-24T14:00:33.142Z,665
2016-09-24T14:01:33.661Z,670
2016-09-24T14:02:34.373Z,665
2016-09-24T14:03:34.179Z,655
2016-09-24T14:04:34.366Z,650
2016-09-24T14:05:34.747Z,635
2016-09-24T14:06:34.615Z,615
2016-09-24T14:07:34.354Z,600
2016-09-24T14:08:34.336Z,590
2016-09-24T14:09:33.957Z,580
2016-09-24T14:10:33.920Z,565